createdAt,value
2019-04-29T00:00:35.017Z,5.43
2019-04-29T00:01:34.802Z,5.35
2019-04-29T00:02:34.802Z,5.29
2019-04-29T00:03:34.795Z,5.17
2019-04-29T00:04:34.993Z,5.11
2019-04-29T00:05:34.795Z,5.10
2019-04-29T00:06:34.969Z,5.02
2019-04-29T00:07:34.776Z,5.04
2019-04-29T00:08:34.782Z,4.97
2019-04-29T00:09:34.766Z,4.93
2019-04-29T00:10:34.744Z,4.93
2019-04-29T00:11:34.744Z,4.92
2019-04-29T00:12:34.748Z,4.89
2019-04-29T00:13:34.736Z,5.04
2019-04-29T00:14:34.733Z,5.00
2019-04-29T00:15:34.715Z,5.10
2019-04-29T00:16:34.918Z,5.14
2019-04-29T00:17:34.716Z,5.15
2019-04-29T00:18:34.719Z,5.21
2019-04-29T00:19:36.278Z,5.30
2019-04-29T00:20:34.894Z,5.33
2019-04-29T00:21:34.681Z,5.30
2019-04-29T00:22:34.680Z,5.28
2019-04-29T00:23:34.667Z,5.29
2019-04-29T00:24:34.661Z,5.21
2019-04-29T00:25:34.665Z,5.20
2019-04-29T00:26:34.648Z,5.12
2019-04-29T00:27:34.651Z,5.11
2019-04-29T00:28:34.633Z,5.05
2019-04-29T00:29:34.621Z,5.04
2019-04-29T00:30:34.629Z,5.04
2019-04-29T00:31:34.624Z,5.00
2019-04-29T00:32:34.622Z,4.96
2019-04-29T00:33:34.599Z,5.04
2019-04-29T00:34:34.608Z,5.02
2019-04-29T00:35:34.596Z,5.02
2019-04-29T00:36:34.592Z,5.05
2019-04-29T00:37:34.590Z,5.05
2019-04-29T00:38:34.773Z,5.12
2019-04-29T00:39:34.565Z,5.02
2019-04-29T00:40:34.557Z,5.00
2019-04-29T00:41:34.549Z,4.93
2019-04-29T00:42:34.756Z,4.87
2019-04-29T00:43:34.544Z,4.87
2019-04-29T00:44:34.738Z,4.75
2019-04-29T00:45:34.730Z,4.87
2019-04-29T00:46:34.521Z,4.74
2019-04-29T00:47:34.514Z,4.73
2019-04-29T00:48:34.507Z,4.74
2019-04-29T00:49:34.499Z,4.86
2019-04-29T00:50:34.695Z,4.74
2019-04-29T00:51:34.538Z,4.74
2019-04-29T00:52:34.687Z,4.67
2019-04-29T00:53:34.485Z,4.70
2019-04-29T00:54:34.685Z,4.78
2019-04-29T00:55:34.456Z,4.86
2019-04-29T00:56:34.449Z,4.86
2019-04-29T00:57:34.652Z,4.86
2019-04-29T00:58:34.442Z,4.87
2019-04-29T00:59:34.435Z,4.84
2019-04-29T01:00:34.434Z,4.73
2019-04-29T01:01:34.416Z,4.78
2019-04-29T01:02:34.414Z,4.77
2019-04-29T01:03:34.425Z,4.66
2019-04-29T01:04:34.396Z,4.70
2019-04-29T01:05:34.394Z,4.56
2019-04-29T01:06:34.393Z,4.52
2019-04-29T01:07:34.379Z,4.55
2019-04-29T01:08:34.373Z,4.50
2019-04-29T01:09:34.364Z,4.41
2019-04-29T01:10:34.381Z,4.45
2019-04-29T01:11:34.357Z,4.42
2019-04-29T01:12:34.349Z,4.44
2019-04-29T01:13:34.354Z,4.45
2019-04-29T01:14:34.332Z,4.49
2019-04-29T01:15:34.325Z,4.55
2019-04-29T01:16:34.318Z,4.59
2019-04-29T01:17:34.321Z,4.59
2019-04-29T01:18:34.317Z,4.63
2019-04-29T01:19:34.513Z,4.66
2019-04-29T01:20:34.505Z,4.66
2019-04-29T01:21:34.292Z,4.58
2019-04-29T01:22:34.298Z,4.70
2019-04-29T01:23:34.278Z,4.62
2019-04-29T01:24:34.266Z,4.60
2019-04-29T01:25:34.259Z,4.58
2019-04-29T01:26:34.270Z,4.60
2019-04-29T01:27:34.247Z,4.53
2019-04-29T01:28:34.237Z,4.48
2019-04-29T01:29:34.447Z,4.55
2019-04-29T01:30:34.233Z,4.52
2019-04-29T01:31:34.219Z,4.56
2019-04-29T01:32:34.425Z,4.58
2019-04-29T01:33:34.216Z,4.82
2019-04-29T01:34:34.199Z,4.84
2019-04-29T01:35:34.209Z,4.84
2019-04-29T01:36:34.395Z,4.82
2019-04-29T01:37:34.186Z,4.77
2019-04-29T01:38:34.176Z,4.80
2019-04-29T01:39:34.173Z,4.80
2019-04-29T01:40:34.166Z,4.75
2019-04-29T01:41:34.158Z,4.58
2019-04-29T01:42:34.360Z,4.62
2019-04-29T01:43:34.140Z,4.49
2019-04-29T01:44:34.339Z,4.44
2019-04-29T01:45:34.334Z,4.44
2019-04-29T01:46:34.143Z,4.40
2019-04-29T01:47:34.114Z,4.22
2019-04-29T01:48:34.109Z,4.31
2019-04-29T01:49:34.104Z,4.30
2019-04-29T01:50:34.302Z,4.30
2019-04-29T01:51:34.088Z,4.22
2019-04-29T01:52:34.084Z,4.37
2019-04-29T01:53:34.090Z,4.38
2019-04-29T01:54:34.084Z,4.40
2019-04-29T01:55:34.063Z,4.35
2019-04-29T01:56:34.058Z,4.42
2019-04-29T01:57:34.259Z,4.37
2019-04-29T01:58:34.045Z,4.42
2019-04-29T01:59:34.044Z,4.38
2019-04-29T02:00:34.235Z,4.37
2019-04-29T02:01:34.230Z,4.35
2019-04-29T02:02:34.222Z,4.37
2019-04-29T02:03:34.006Z,4.37
2019-04-29T02:04:34.001Z,4.38
2019-04-29T02:05:34.074Z,4.41
2019-04-29T02:06:33.991Z,4.38
2019-04-29T02:07:33.999Z,4.30
2019-04-29T02:08:33.981Z,4.31
2019-04-29T02:09:34.186Z,4.32
2019-04-29T02:10:34.181Z,4.40
2019-04-29T02:11:34.158Z,4.31
2019-04-29T02:12:33.967Z,4.38
2019-04-29T02:13:33.945Z,4.38
2019-04-29T02:14:33.943Z,4.37
2019-04-29T02:15:33.930Z,4.28
2019-04-29T02:16:33.921Z,4.30
2019-04-29T02:17:33.914Z,4.31
2019-04-29T02:18:34.110Z,4.41
2019-04-29T02:19:34.112Z,4.38
2019-04-29T02:20:33.890Z,4.40
2019-04-29T02:21:33.886Z,4.40
2019-04-29T02:22:33.911Z,4.40
2019-04-29T02:23:33.875Z,4.44
2019-04-29T02:24:33.873Z,4.38
2019-04-29T02:25:33.869Z,4.34
2019-04-29T02:26:33.855Z,4.32
2019-04-29T02:27:33.881Z,4.24
2019-04-29T02:28:33.863Z,4.20
2019-04-29T02:29:33.845Z,4.31
2019-04-29T02:30:33.828Z,4.28
2019-04-29T02:31:33.823Z,4.19
2019-04-29T02:32:33.835Z,4.17
2019-04-29T02:33:33.808Z,4.22
2019-04-29T02:34:33.796Z,4.12
2019-04-29T02:35:33.805Z,4.13
2019-04-29T02:36:33.796Z,4.16
2019-04-29T02:37:33.777Z,4.13
2019-04-29T02:38:33.779Z,4.12
2019-04-29T02:39:33.776Z,4.17
2019-04-29T02:40:33.769Z,4.30
2019-04-29T02:41:33.756Z,4.16
2019-04-29T02:42:33.755Z,4.16
2019-04-29T02:43:33.743Z,4.12
2019-04-29T02:44:33.730Z,4.13
2019-04-29T02:45:33.738Z,4.16
2019-04-29T02:46:33.723Z,4.17
2019-04-29T02:47:33.711Z,4.06
2019-04-29T02:48:34.737Z,4.10
2019-04-29T02:49:33.711Z,3.88
2019-04-29T02:50:33.687Z,3.83
2019-04-29T02:51:33.693Z,3.81
2019-04-29T02:52:33.678Z,3.70
2019-04-29T02:53:33.886Z,3.78
2019-04-29T02:54:33.874Z,3.66
2019-04-29T02:55:33.670Z,3.66
2019-04-29T02:56:33.860Z,3.69
2019-04-29T02:57:33.647Z,3.76
2019-04-29T02:58:33.643Z,3.81
2019-04-29T02:59:33.856Z,3.83
2019-04-29T03:00:33.827Z,3.88
2019-04-29T03:01:33.614Z,3.92
2019-04-29T03:02:33.608Z,3.95
2019-04-29T03:03:33.604Z,3.96
2019-04-29T03:04:33.603Z,3.91
2019-04-29T03:05:33.601Z,3.92
2019-04-29T03:06:33.786Z,3.92
2019-04-29T03:07:33.572Z,3.95
2019-04-29T03:08:33.577Z,3.91
2019-04-29T03:09:33.762Z,3.92
2019-04-29T03:10:33.563Z,4.05
2019-04-29T03:11:33.547Z,4.13
2019-04-29T03:12:33.534Z,4.14
2019-04-29T03:13:33.530Z,4.16
2019-04-29T03:14:33.531Z,4.10
2019-04-29T03:15:33.540Z,4.23
2019-04-29T03:16:33.513Z,4.26
2019-04-29T03:17:33.523Z,4.13
2019-04-29T03:18:33.496Z,4.12
2019-04-29T03:19:33.496Z,4.10
2019-04-29T03:20:33.491Z,3.98
2019-04-29T03:21:33.783Z,3.91
2019-04-29T03:22:33.465Z,3.86
2019-04-29T03:23:33.680Z,3.88
2019-04-29T03:24:33.664Z,3.87
2019-04-29T03:25:33.451Z,3.78
2019-04-29T03:26:33.442Z,3.83
2019-04-29T03:27:33.656Z,3.81
2019-04-29T03:28:33.446Z,3.78
2019-04-29T03:29:33.419Z,3.69
2019-04-29T03:30:33.411Z,3.68
2019-04-29T03:31:39.076Z,3.69
2019-04-29T03:32:33.401Z,3.74
2019-04-29T03:33:33.389Z,3.77
2019-04-29T03:34:33.399Z,3.80
2019-04-29T03:35:33.379Z,3.80
2019-04-29T03:36:33.367Z,3.87
2019-04-29T03:37:33.360Z,3.95
2019-04-29T03:38:33.357Z,3.88
2019-04-29T03:39:33.347Z,3.87
2019-04-29T03:40:33.355Z,3.87
2019-04-29T03:41:33.336Z,3.84
2019-04-29T03:42:33.338Z,3.92
2019-04-29T03:43:33.319Z,3.88
2019-04-29T03:44:33.357Z,3.84
2019-04-29T03:45:33.308Z,3.87
2019-04-29T03:46:33.519Z,3.91
2019-04-29T03:47:33.312Z,3.84
2019-04-29T03:48:33.350Z,3.84
2019-04-29T03:49:33.278Z,3.81
2019-04-29T03:50:33.272Z,3.73
2019-04-29T03:51:33.274Z,3.83
2019-04-29T03:52:33.262Z,3.77
2019-04-29T03:53:33.269Z,3.77
2019-04-29T03:54:33.248Z,3.68
2019-04-29T03:55:39.691Z,3.65
2019-04-29T03:56:33.247Z,3.74
2019-04-29T03:57:33.220Z,3.66
2019-04-29T03:58:33.231Z,3.70
2019-04-29T03:59:33.209Z,3.74
2019-04-29T04:00:33.209Z,3.78
2019-04-29T04:01:33.198Z,3.70
2019-04-29T04:02:33.192Z,3.76
2019-04-29T04:03:33.179Z,3.87
2019-04-29T04:04:33.181Z,3.92
2019-04-29T04:05:33.237Z,3.80
2019-04-29T04:06:33.162Z,3.84
2019-04-29T04:07:33.169Z,3.87
2019-04-29T04:08:33.155Z,3.83
2019-04-29T04:09:33.150Z,3.94
2019-04-29T04:10:33.162Z,3.98
2019-04-29T04:11:33.163Z,3.88
2019-04-29T04:12:33.133Z,3.94
2019-04-29T04:13:33.320Z,3.87
2019-04-29T04:14:33.335Z,3.88
2019-04-29T04:15:33.128Z,3.88
2019-04-29T04:16:33.092Z,3.88
2019-04-29T04:17:33.287Z,3.84
2019-04-29T04:18:33.086Z,3.84
2019-04-29T04:19:33.069Z,4.02
2019-04-29T04:20:33.073Z,3.91
2019-04-29T04:21:33.257Z,3.98
2019-04-29T04:22:33.069Z,4.02
2019-04-29T04:23:33.037Z,4.05
2019-04-29T04:24:33.030Z,4.08
2019-04-29T04:25:33.231Z,4.16
2019-04-29T04:26:33.051Z,4.02
2019-04-29T04:27:33.006Z,4.02
2019-04-29T04:28:33.004Z,4.05
2019-04-29T04:29:33.096Z,4.10
2019-04-29T04:30:32.997Z,4.06
2019-04-29T04:31:32.984Z,4.01
2019-04-29T04:32:32.978Z,4.10
2019-04-29T04:33:32.973Z,4.02
2019-04-29T04:34:32.964Z,4.12
2019-04-29T04:35:32.954Z,4.16
2019-04-29T04:36:33.144Z,4.22
2019-04-29T04:37:32.942Z,4.22
2019-04-29T04:38:32.932Z,4.23
2019-04-29T04:39:32.926Z,4.24
2019-04-29T04:40:33.119Z,4.34
2019-04-29T04:41:32.930Z,4.38
2019-04-29T04:42:33.126Z,4.42
2019-04-29T04:43:32.892Z,4.35
2019-04-29T04:44:32.888Z,4.48
2019-04-29T04:45:33.084Z,4.52
2019-04-29T04:46:32.889Z,4.53
2019-04-29T04:47:32.866Z,4.59
2019-04-29T04:48:32.860Z,4.50
2019-04-29T04:49:32.847Z,4.59
2019-04-29T04:50:32.851Z,4.59
2019-04-29T04:51:32.840Z,4.59
2019-04-29T04:52:32.833Z,4.70
2019-04-29T04:53:32.832Z,4.70
2019-04-29T04:54:32.820Z,4.60
2019-04-29T04:55:32.816Z,4.75
2019-04-29T04:56:33.003Z,4.89
2019-04-29T04:57:32.800Z,4.87
2019-04-29T04:58:33.009Z,4.94
2019-04-29T04:59:32.782Z,5.02
2019-04-29T05:00:32.777Z,5.07
2019-04-29T05:01:32.764Z,5.05
2019-04-29T05:02:32.966Z,5.10
2019-04-29T05:03:32.755Z,5.11
2019-04-29T05:04:32.768Z,5.18
2019-04-29T05:05:32.743Z,5.08
2019-04-29T05:06:32.730Z,5.14
2019-04-29T05:07:32.935Z,5.02
2019-04-29T05:08:32.726Z,4.99
2019-04-29T05:09:32.713Z,5.04
2019-04-29T05:10:32.732Z,5.00
2019-04-29T05:11:32.717Z,4.92
2019-04-29T05:12:32.692Z,4.90
2019-04-29T05:13:32.681Z,4.97
2019-04-29T05:14:32.679Z,4.96
2019-04-29T05:15:32.668Z,4.89
2019-04-29T05:16:32.670Z,4.89
2019-04-29T05:17:32.659Z,4.92
2019-04-29T05:18:32.667Z,5.00
2019-04-29T05:19:32.648Z,5.00
2019-04-29T05:20:32.635Z,4.97
2019-04-29T05:21:32.630Z,5.14
2019-04-29T05:22:32.824Z,5.10
2019-04-29T05:23:32.621Z,5.10
2019-04-29T05:24:32.607Z,5.17
2019-04-29T05:25:32.610Z,5.14
2019-04-29T05:26:32.595Z,5.21
2019-04-29T05:27:32.619Z,5.21
2019-04-29T05:28:32.605Z,5.26
2019-04-29T05:29:32.578Z,5.25
2019-04-29T05:30:32.568Z,5.26
2019-04-29T05:31:32.782Z,5.33
2019-04-29T05:32:32.762Z,5.32
2019-04-29T05:33:32.570Z,5.33
2019-04-29T05:34:32.538Z,5.44
2019-04-29T05:35:32.553Z,5.46
2019-04-29T05:36:34.043Z,5.36
2019-04-29T05:37:32.518Z,5.57
2019-04-29T05:38:32.515Z,5.54
2019-04-29T05:39:32.513Z,5.51
2019-04-29T05:40:32.522Z,5.57
2019-04-29T05:41:34.887Z,5.65
2019-04-29T05:42:32.754Z,5.72
2019-04-29T05:43:33.711Z,5.79
2019-04-29T05:44:32.699Z,5.84
2019-04-29T05:45:32.680Z,5.87
2019-04-29T05:46:32.460Z,5.86
2019-04-29T05:47:32.484Z,5.91
2019-04-29T05:48:33.268Z,5.99
2019-04-29T05:49:32.645Z,6.02
2019-04-29T05:50:32.437Z,6.02
2019-04-29T05:51:32.441Z,6.04
2019-04-29T05:52:34.703Z,6.19
2019-04-29T05:53:32.449Z,6.16
2019-04-29T05:54:33.515Z,6.19
2019-04-29T05:55:32.406Z,6.28
2019-04-29T05:56:32.421Z,6.36
2019-04-29T05:57:32.602Z,6.52
2019-04-29T05:58:32.826Z,6.45
2019-04-29T05:59:32.403Z,6.60
2019-04-29T06:00:32.377Z,6.62
2019-04-29T06:01:32.377Z,6.74
2019-04-29T06:02:35.128Z,6.69
2019-04-29T06:03:33.453Z,6.74
2019-04-29T06:04:32.374Z,6.88
2019-04-29T06:05:32.338Z,6.79
2019-04-29T06:06:32.342Z,6.96
2019-04-29T06:07:32.325Z,6.92
2019-04-29T06:08:34.463Z,7.00
2019-04-29T06:09:32.309Z,6.99
2019-04-29T06:10:32.321Z,6.99
2019-04-29T06:11:32.515Z,7.10
2019-04-29T06:12:32.494Z,7.07
2019-04-29T06:13:32.506Z,7.21
2019-04-29T06:14:32.489Z,7.13
2019-04-29T06:15:32.492Z,7.24
2019-04-29T06:16:32.272Z,7.24
2019-04-29T06:17:32.267Z,7.33
2019-04-29T06:18:32.251Z,7.38
2019-04-29T06:19:35.241Z,7.32
2019-04-29T06:20:32.250Z,7.38
2019-04-29T06:21:32.245Z,7.39
2019-04-29T06:22:32.231Z,7.43
2019-04-29T06:23:32.240Z,7.51
2019-04-29T06:24:32.235Z,7.50
2019-04-29T06:25:32.226Z,7.48
2019-04-29T06:26:32.222Z,7.66
2019-04-29T06:27:33.431Z,7.61
2019-04-29T06:28:32.198Z,7.60
2019-04-29T06:29:32.194Z,7.67
2019-04-29T06:30:32.191Z,7.72
2019-04-29T06:31:32.183Z,7.76
2019-04-29T06:32:32.186Z,7.77
2019-04-29T06:33:32.180Z,7.82
2019-04-29T06:34:35.592Z,7.80
2019-04-29T06:35:32.157Z,7.88
2019-04-29T06:36:32.157Z,7.93
2019-04-29T06:37:32.137Z,8.03
2019-04-29T06:38:32.139Z,8.03
2019-04-29T06:39:32.135Z,8.09
2019-04-29T06:40:35.365Z,8.06
2019-04-29T06:41:32.114Z,8.08
2019-04-29T06:42:33.523Z,8.20
2019-04-29T06:43:32.108Z,8.23
2019-04-29T06:44:32.099Z,8.20
2019-04-29T06:46:05.504Z,8.26
2019-04-29T06:46:32.114Z,8.23
2019-04-29T06:47:32.094Z,8.27
2019-04-29T06:48:32.095Z,8.26
2019-04-29T06:49:32.070Z,8.27
2019-04-29T06:50:32.064Z,8.31
2019-04-29T06:51:32.059Z,8.37
2019-04-29T06:52:32.093Z,8.41
2019-04-29T06:53:32.054Z,8.45
2019-04-29T06:54:32.050Z,8.56
2019-04-29T06:55:32.267Z,8.52
2019-04-29T06:56:32.042Z,8.46
2019-04-29T06:57:32.041Z,8.58
2019-04-29T06:58:32.490Z,8.56
2019-04-29T06:59:32.013Z,8.60
2019-04-29T07:00:32.028Z,8.73
2019-04-29T07:01:33.079Z,8.81
2019-04-29T07:02:32.002Z,8.85
2019-04-29T07:03:32.020Z,9.00
2019-04-29T07:04:38.433Z,9.10
2019-04-29T07:05:31.988Z,9.13
2019-04-29T07:06:31.979Z,9.11
2019-04-29T07:07:31.971Z,9.19
2019-04-29T07:08:31.964Z,9.32
2019-04-29T07:09:31.960Z,9.39
2019-04-29T07:10:31.952Z,9.34
2019-04-29T07:11:36.377Z,9.50
2019-04-29T07:12:31.962Z,9.55
2019-04-29T07:13:31.942Z,9.65
2019-04-29T07:14:33.278Z,9.74
2019-04-29T07:15:31.935Z,9.87
2019-04-29T07:16:32.204Z,9.86
2019-04-29T07:17:31.930Z,9.91
2019-04-29T07:18:31.914Z,9.86
2019-04-29T07:19:31.933Z,9.92
2019-04-29T07:20:32.462Z,9.95
2019-04-29T07:21:31.902Z,9.99
2019-04-29T07:22:31.895Z,10.07
2019-04-29T07:23:31.910Z,10.10
2019-04-29T07:24:32.101Z,10.15
2019-04-29T07:25:32.106Z,10.28
2019-04-29T07:26:31.880Z,10.41
2019-04-29T07:27:34.865Z,10.63
2019-04-29T07:28:31.877Z,11.02
2019-04-29T07:29:32.935Z,11.41
2019-04-29T07:30:31.874Z,11.80
2019-04-29T07:31:33.492Z,11.86
2019-04-29T07:32:32.419Z,12.09
2019-04-29T07:33:31.842Z,12.28
2019-04-29T07:34:33.811Z,12.25
2019-04-29T07:35:31.865Z,12.24
2019-04-29T07:36:31.831Z,12.21
2019-04-29T07:37:34.060Z,11.90
2019-04-29T07:38:41.122Z,11.78
2019-04-29T07:39:33.395Z,11.62
2019-04-29T07:40:31.827Z,11.32
2019-04-29T07:41:31.814Z,11.00
2019-04-29T07:42:33.220Z,10.92
2019-04-29T07:43:31.798Z,10.84
2019-04-29T07:44:43.393Z,10.74
2019-04-29T07:45:43.667Z,10.71
2019-04-29T07:46:36.390Z,10.84
2019-04-29T07:47:31.782Z,10.75
2019-04-29T07:48:31.797Z,10.71
2019-04-29T07:49:31.783Z,10.69
2019-04-29T07:50:31.783Z,10.74
2019-04-29T07:51:34.773Z,10.75
2019-04-29T07:52:31.771Z,10.67
2019-04-29T07:53:40.112Z,10.63
2019-04-29T07:54:31.755Z,10.72
2019-04-29T07:55:32.587Z,10.81
2019-04-29T07:56:31.742Z,10.74
2019-04-29T07:57:31.743Z,10.71
2019-04-29T07:58:31.767Z,10.76
2019-04-29T07:59:33.756Z,10.86
2019-04-29T08:00:31.729Z,10.84
2019-04-29T08:01:31.731Z,10.87
2019-04-29T08:02:31.731Z,10.92
2019-04-29T08:03:31.716Z,10.94
2019-04-29T08:04:31.724Z,10.86
2019-04-29T08:05:31.917Z,10.94
2019-04-29T08:06:31.714Z,10.94
2019-04-29T08:07:31.896Z,10.96
2019-04-29T08:08:31.888Z,10.94
2019-04-29T08:09:31.685Z,11.04
2019-04-29T08:10:31.881Z,11.00
2019-04-29T08:11:31.893Z,11.14
2019-04-29T08:12:31.681Z,11.15
2019-04-29T08:13:31.664Z,11.14
2019-04-29T08:14:31.671Z,11.18
2019-04-29T08:15:32.187Z,11.23
2019-04-29T08:16:31.659Z,11.32
2019-04-29T08:17:31.659Z,11.33
2019-04-29T08:18:31.644Z,11.40
2019-04-29T08:19:31.889Z,11.44
2019-04-29T08:20:31.648Z,11.50
2019-04-29T08:21:31.833Z,11.44
2019-04-29T08:22:31.623Z,11.54
2019-04-29T08:23:33.043Z,11.50
2019-04-29T08:24:31.617Z,11.52
2019-04-29T08:25:31.634Z,11.54
2019-04-29T08:26:33.597Z,11.60
2019-04-29T08:27:39.774Z,11.63
2019-04-29T08:28:31.595Z,11.65
2019-04-29T08:29:35.726Z,11.63
2019-04-29T08:30:31.586Z,11.66
2019-04-29T08:31:31.589Z,11.66
2019-04-29T08:32:36.107Z,11.65
2019-04-29T08:33:31.579Z,11.73
2019-04-29T08:34:31.579Z,11.80
2019-04-29T08:35:32.628Z,11.88
2019-04-29T08:36:31.574Z,11.86
2019-04-29T08:37:31.767Z,11.99
2019-04-29T08:38:31.572Z,12.06
2019-04-29T08:39:31.580Z,12.10
2019-04-29T08:40:34.165Z,12.15
2019-04-29T08:41:31.753Z,12.20
2019-04-29T08:42:31.551Z,12.29
2019-04-29T08:43:31.548Z,12.32
2019-04-29T08:44:31.530Z,12.45
2019-04-29T08:45:34.634Z,12.42
2019-04-29T08:46:31.723Z,12.43
2019-04-29T08:47:31.879Z,12.53
2019-04-29T08:48:31.511Z,12.62
2019-04-29T08:49:31.515Z,12.86
2019-04-29T08:50:31.498Z,12.85
2019-04-29T08:51:31.708Z,12.87
2019-04-29T08:52:31.696Z,13.00
2019-04-29T08:53:31.714Z,13.13
2019-04-29T08:54:31.704Z,13.12
2019-04-29T08:55:36.128Z,13.22
2019-04-29T08:56:31.481Z,13.37
2019-04-29T08:57:36.279Z,13.31
2019-04-29T08:58:31.480Z,13.27
2019-04-29T08:59:31.470Z,13.37
2019-04-29T09:00:31.467Z,13.35
2019-04-29T09:01:34.170Z,13.25
2019-04-29T09:02:34.860Z,13.11
2019-04-29T09:03:40.054Z,13.09
2019-04-29T09:04:33.342Z,13.33
2019-04-29T09:05:31.443Z,13.31
2019-04-29T09:06:32.554Z,13.31
2019-04-29T09:07:31.445Z,13.52
2019-04-29T09:08:33.020Z,13.65
2019-04-29T09:09:31.431Z,13.87
2019-04-29T09:10:35.109Z,14.03
2019-04-29T09:11:31.442Z,13.78
2019-04-29T09:12:31.417Z,13.53
2019-04-29T09:13:31.412Z,13.62
2019-04-29T09:14:31.404Z,13.70
2019-04-29T09:15:31.603Z,13.68
2019-04-29T09:16:31.402Z,13.62
2019-04-29T09:17:31.397Z,13.60
2019-04-29T09:18:31.405Z,13.60
2019-04-29T09:19:31.420Z,13.53
2019-04-29T09:20:31.386Z,13.37
2019-04-29T09:21:31.395Z,13.38
2019-04-29T09:22:31.394Z,13.23
2019-04-29T09:23:31.371Z,13.18
2019-04-29T09:24:31.370Z,13.04
2019-04-29T09:25:31.377Z,13.12
2019-04-29T09:26:31.377Z,12.98
2019-04-29T09:27:31.356Z,13.01
2019-04-29T09:28:31.345Z,12.82
2019-04-29T09:29:31.365Z,12.83
2019-04-29T09:30:31.344Z,12.67
2019-04-29T09:31:31.361Z,12.73
2019-04-29T09:32:33.926Z,12.67
2019-04-29T09:33:31.328Z,12.70
2019-04-29T09:34:31.347Z,12.72
2019-04-29T09:35:33.703Z,12.70
2019-04-29T09:36:31.319Z,12.86
2019-04-29T09:37:31.309Z,12.83
2019-04-29T09:38:32.556Z,12.93
2019-04-29T09:39:42.506Z,12.85
2019-04-29T09:40:31.314Z,12.90
2019-04-29T09:41:35.012Z,12.95
2019-04-29T09:42:31.306Z,12.87
2019-04-29T09:43:32.942Z,12.93
2019-04-29T09:44:31.281Z,12.90
2019-04-29T09:45:31.282Z,12.93
2019-04-29T09:46:34.519Z,13.03
2019-04-29T09:47:31.279Z,13.08
2019-04-29T09:48:31.272Z,13.08
2019-04-29T09:49:31.266Z,13.12
2019-04-29T09:50:34.165Z,13.11
2019-04-29T09:51:31.258Z,13.09
2019-04-29T09:52:31.252Z,13.18
2019-04-29T09:53:31.252Z,13.11
2019-04-29T09:54:31.240Z,13.09
2019-04-29T09:55:31.239Z,13.11
2019-04-29T09:56:34.419Z,13.15
2019-04-29T09:57:31.242Z,13.05
2019-04-29T09:58:31.228Z,13.15
2019-04-29T09:59:31.222Z,13.05
2019-04-29T10:00:31.216Z,13.23
2019-04-29T10:01:31.228Z,13.20
2019-04-29T10:02:33.115Z,13.22
2019-04-29T10:03:31.219Z,13.13
2019-04-29T10:04:31.219Z,13.22
2019-04-29T10:05:31.213Z,13.16
2019-04-29T10:06:31.190Z,13.18
2019-04-29T10:07:31.184Z,13.31
2019-04-29T10:08:31.183Z,13.31
2019-04-29T10:09:31.196Z,13.30
2019-04-29T10:10:31.185Z,13.33
2019-04-29T10:11:31.176Z,13.42
2019-04-29T10:12:31.167Z,13.49
2019-04-29T10:13:31.178Z,13.49
2019-04-29T10:14:31.181Z,13.70
2019-04-29T10:15:31.158Z,13.63
2019-04-29T10:16:31.704Z,13.68
2019-04-29T10:17:31.157Z,13.65
2019-04-29T10:18:31.470Z,13.56
2019-04-29T10:19:31.137Z,13.46
2019-04-29T10:20:31.141Z,13.44
2019-04-29T10:21:31.132Z,13.27
2019-04-29T10:22:31.133Z,13.25
2019-04-29T10:23:31.140Z,13.42
2019-04-29T10:24:31.152Z,13.46
2019-04-29T10:25:31.126Z,13.56
2019-04-29T10:26:31.110Z,13.70
2019-04-29T10:27:31.112Z,13.79
2019-04-29T10:28:31.109Z,13.90
2019-04-29T10:29:31.107Z,13.96
2019-04-29T10:30:32.400Z,13.95
2019-04-29T10:31:31.108Z,13.96
2019-04-29T10:32:31.091Z,13.92
2019-04-29T10:33:31.114Z,13.90
2019-04-29T10:34:31.913Z,13.86
2019-04-29T10:35:31.084Z,13.70
2019-04-29T10:36:31.278Z,13.67
2019-04-29T10:37:32.394Z,13.71
2019-04-29T10:38:31.282Z,13.50
2019-04-29T10:39:31.068Z,13.42
2019-04-29T10:40:31.057Z,13.35
2019-04-29T10:41:31.258Z,13.31
2019-04-29T10:42:31.058Z,13.35
2019-04-29T10:43:31.248Z,13.38
2019-04-29T10:44:31.050Z,13.46
2019-04-29T10:45:31.036Z,13.62
2019-04-29T10:46:31.031Z,13.74
2019-04-29T10:47:31.034Z,13.70
2019-04-29T10:48:31.030Z,13.72
2019-04-29T10:49:34.719Z,13.74
2019-04-29T10:50:31.020Z,13.71
2019-04-29T10:51:31.018Z,13.78
2019-04-29T10:52:34.579Z,13.85
2019-04-29T10:53:31.011Z,13.93
2019-04-29T10:54:31.006Z,13.90
2019-04-29T10:55:31.769Z,14.00
2019-04-29T10:56:31.000Z,14.14
2019-04-29T10:57:30.986Z,14.29
2019-04-29T10:58:35.484Z,14.26
2019-04-29T10:59:36.137Z,14.23
2019-04-29T11:00:30.977Z,14.20
2019-04-29T11:01:30.995Z,14.10
2019-04-29T11:02:31.179Z,13.99
2019-04-29T11:03:31.174Z,13.96
2019-04-29T11:04:31.616Z,13.95
2019-04-29T11:05:30.967Z,13.96
2019-04-29T11:06:31.317Z,13.92
2019-04-29T11:07:31.158Z,13.96
2019-04-29T11:08:33.779Z,14.10
2019-04-29T11:09:30.944Z,14.20
2019-04-29T11:10:30.944Z,14.15
2019-04-29T11:11:30.940Z,14.30
2019-04-29T11:12:30.948Z,14.23
2019-04-29T11:13:31.151Z,14.22
2019-04-29T11:14:33.067Z,14.12
2019-04-29T11:15:32.686Z,14.12
2019-04-29T11:16:46.122Z,13.99
2019-04-29T11:17:31.132Z,13.97
2019-04-29T11:18:30.914Z,13.90
2019-04-29T11:19:30.906Z,13.90
2019-04-29T11:20:30.901Z,13.96
2019-04-29T11:21:31.387Z,13.92
2019-04-29T11:22:33.955Z,13.92
2019-04-29T11:23:30.900Z,13.99
2019-04-29T11:24:32.510Z,13.92
2019-04-29T11:25:30.887Z,13.86
2019-04-29T11:26:30.882Z,13.95
2019-04-29T11:27:30.881Z,13.95
2019-04-29T11:28:30.897Z,13.93
2019-04-29T11:29:30.870Z,14.07
2019-04-29T11:30:34.783Z,13.92
2019-04-29T11:31:31.064Z,14.00
2019-04-29T11:32:30.861Z,14.03
2019-04-29T11:33:30.879Z,14.04
2019-04-29T11:34:33.229Z,13.97
2019-04-29T11:35:30.847Z,14.04
2019-04-29T11:36:30.865Z,13.96
2019-04-29T11:37:30.838Z,14.04
2019-04-29T11:38:33.403Z,14.20
2019-04-29T11:39:30.850Z,14.22
2019-04-29T11:40:43.173Z,14.32
2019-04-29T11:41:31.053Z,14.47
2019-04-29T11:42:31.911Z,14.62
2019-04-29T11:43:30.823Z,14.55
2019-04-29T11:44:31.984Z,14.53
2019-04-29T11:45:33.625Z,14.51
2019-04-29T11:46:31.019Z,14.47
2019-04-29T11:47:30.821Z,14.37
2019-04-29T11:48:30.806Z,14.25
2019-04-29T11:49:30.797Z,14.12
2019-04-29T11:50:30.790Z,14.15
2019-04-29T11:51:34.074Z,14.14
2019-04-29T11:52:30.794Z,14.07
2019-04-29T11:53:30.782Z,14.03
2019-04-29T11:54:30.789Z,13.93
2019-04-29T11:55:30.772Z,14.03
2019-04-29T11:56:30.989Z,13.87
2019-04-29T11:57:40.689Z,13.93
2019-04-29T11:58:30.770Z,14.17
2019-04-29T11:59:30.830Z,14.28
2019-04-29T12:00:30.757Z,14.32
2019-04-29T12:01:38.447Z,14.32
2019-04-29T12:02:44.512Z,14.44
2019-04-29T12:03:30.752Z,14.62
2019-04-29T12:04:33.721Z,14.70
2019-04-29T12:05:30.751Z,14.73
2019-04-29T12:06:30.734Z,14.73
2019-04-29T12:07:32.489Z,14.65
2019-04-29T12:08:30.743Z,14.62
2019-04-29T12:09:32.255Z,14.48
2019-04-29T12:10:30.742Z,14.48
2019-04-29T12:11:35.735Z,14.40
2019-04-29T12:12:30.732Z,14.45
2019-04-29T12:13:30.707Z,14.54
2019-04-29T12:14:33.832Z,14.44
2019-04-29T12:15:30.721Z,14.43
2019-04-29T12:16:30.701Z,14.40
2019-04-29T12:17:30.705Z,14.36
2019-04-29T12:18:34.098Z,14.32
2019-04-29T12:19:30.901Z,14.36
2019-04-29T12:20:30.909Z,14.29
2019-04-29T12:21:30.679Z,14.35
2019-04-29T12:22:31.238Z,14.51
2019-04-29T12:23:30.683Z,14.58
2019-04-29T12:24:30.671Z,14.84
2019-04-29T12:25:30.663Z,14.92
2019-04-29T12:26:30.682Z,14.96
2019-04-29T12:27:30.679Z,14.91
2019-04-29T12:28:30.663Z,14.82
2019-04-29T12:29:30.655Z,14.79
2019-04-29T12:30:34.553Z,14.79
2019-04-29T12:31:30.654Z,14.82
2019-04-29T12:32:30.659Z,14.72
2019-04-29T12:33:32.513Z,14.82
2019-04-29T12:34:30.840Z,14.91
2019-04-29T12:35:30.643Z,14.99
2019-04-29T12:36:30.647Z,15.04
2019-04-29T12:37:31.287Z,15.06
2019-04-29T12:38:39.820Z,15.02
2019-04-29T12:39:43.050Z,14.97
2019-04-29T12:40:30.616Z,14.92
2019-04-29T12:41:31.533Z,14.78
2019-04-29T12:42:30.610Z,14.66
2019-04-29T12:43:32.353Z,14.70
2019-04-29T12:44:35.278Z,14.78
2019-04-29T12:45:30.800Z,14.79
2019-04-29T12:46:30.593Z,14.78
2019-04-29T12:47:30.607Z,14.68
2019-04-29T12:48:30.599Z,14.82
2019-04-29T12:49:30.791Z,14.73
2019-04-29T12:50:30.795Z,14.91
2019-04-29T12:51:30.580Z,14.94
2019-04-29T12:52:30.784Z,14.97
2019-04-29T12:53:30.573Z,15.02
2019-04-29T12:54:30.582Z,15.03
2019-04-29T12:55:44.140Z,14.89
2019-04-29T12:56:30.562Z,14.86
2019-04-29T12:57:30.553Z,14.89
2019-04-29T12:58:30.563Z,14.78
2019-04-29T12:59:35.435Z,14.78
2019-04-29T13:00:30.546Z,14.70
2019-04-29T13:01:50.353Z,14.72
2019-04-29T13:02:30.539Z,14.65
2019-04-29T13:03:38.965Z,14.65
2019-04-29T13:04:30.746Z,14.63
2019-04-29T13:05:30.735Z,14.65
2019-04-29T13:06:39.167Z,14.73